Wilmington, DE (19809)

4:47 PM EDT on June 02, 2015 (GMT -0400)
The Highlands | | Change Station
CLOSE
Current Station
Personal Weather Station
Location: Wilmington, DE
Elevation: 207 ft
Nearby Weather Stations

Elev 207 ft 39.76 °N, 75.57 °W | Updated 2 seconds ago

Overcast
Overcast
57.2 °F
Feels Like 57.2 °F
N
0.2
Wind Variable Wind from SE
Gusts 2.5 mph

Today
High -- | Low -- °F
--% Chance of Precip.
Yesterday
High -- | Low -- °F
Precip. -- in
5:35 AM 8:24 PM
Full, 100% visible
Pressure 30.12 in
Visibility 4.0 miles
Clouds Mostly Cloudy 700 ft
Mostly Cloudy 1500 ft
Overcast 1900 ft
Dew Point 56 °F
Humidity 97%
Rainfall 0.32 in
Snow Depth Not available.
UV 1.0 out of 12
Pollen .90 out of 12
Air Quality Not available.
Flu Activity No Activity
METAR KILG 021951Z 03008KT 4SM -RA BR BKN007 BKN015 OVC019 14/13 A3011 RMK AO2 RAE13B39 SLP197 P0000 T01390128

More Conditions Fewer Conditions

Pressure 30.12 in
Visibility 4.0 miles
Clouds Mostly Cloudy 700 ft
Mostly Cloudy 1500 ft
Overcast 1900 ft
Dew Point 56 °F
Humidity 97%
Rainfall 0.32 in
Snow Depth Not available.
UV 1.0 out of 12
Pollen .90 out of 12
Air Quality Not available.
Flu Activity No Activity
METAR KILG 021951Z 03008KT 4SM -RA BR BKN007 BKN015 OVC019 14/13 A3011 RMK AO2 RAE13B39 SLP197 P0000 T01390128

More Conditions Fewer Conditions

Nowcast | as of 4:10 PM EDT on June 2, 2015

Through the rest of the afternoon, some spotty light rain or drizzle will affect the area. Rainfall amounts between 4 PM and 6 PM should average less than five hundredths of an inch.

×

10-Day Weather Forecast

×

Almanac

Astronomy

Jun. 02, 2015 Rise Set
Actual Time
Civil Twilight
Nautical Twilight
Astronomical Twilight
Moon
Length of Visible Light
Length of Day
Tomorrow will be .
, % of the Moon is Illuminated

Today's Extremes

State Highs State Lows

Community

WunderPhotos

Upload Photos

1,826,022 photos uploaded!

WunderBlogs® & News

Nearby

Air Quality

  Air Quality AQ Index Pollutant
Not available.

Snow Depth

Station Depth Elevation

Earthquake Activity

City Distance Mag. Time & Date
Minimum magnitude displayed is 2.5.

Coastal Water Temperatures

Place Temperature

Stations

Nearby Weather Stations

Station Location Temp. Windchill Dew Point Humidity Wind Precip. Elev Updated Type